createdAt,value
2022-12-05T00:01:37.641Z,2.80
2022-12-05T00:04:08.584Z,2.80
2022-12-05T00:06:38.192Z,2.80
2022-12-05T00:09:07.707Z,2.70
2022-12-05T00:11:37.702Z,2.70
2022-12-05T00:14:06.489Z,2.70
2022-12-05T00:16:35.864Z,2.80
2022-12-05T00:19:05.033Z,2.70
2022-12-05T00:21:34.579Z,2.80
2022-12-05T00:24:03.997Z,2.70
2022-12-05T00:26:32.229Z,2.70
2022-12-05T00:29:00.068Z,2.70
2022-12-05T00:31:28.420Z,2.70
2022-12-05T00:33:56.426Z,2.70
2022-12-05T00:36:27.204Z,2.70
2022-12-05T00:38:55.670Z,2.70
2022-12-05T00:41:25.344Z,2.70
2022-12-05T00:43:53.744Z,2.70
2022-12-05T00:46:23.366Z,2.70
2022-12-05T00:48:52.638Z,2.70
2022-12-05T00:51:28.732Z,2.70
2022-12-05T00:54:02.509Z,2.70
2022-12-05T00:56:32.507Z,2.60
2022-12-05T00:59:01.543Z,2.70
2022-12-05T01:01:35.326Z,2.70
2022-12-05T01:04:06.082Z,2.60
2022-12-05T01:06:33.780Z,2.70
2022-12-05T01:09:04.174Z,2.70
2022-12-05T01:11:35.055Z,2.70
2022-12-05T01:14:12.020Z,2.60
2022-12-05T01:16:41.668Z,2.60
2022-12-05T01:19:14.099Z,2.70
2022-12-05T01:21:42.168Z,2.70
2022-12-05T01:24:11.429Z,2.70
2022-12-05T01:26:40.512Z,2.70
2022-12-05T01:29:08.019Z,2.70
2022-12-05T01:31:37.477Z,2.70
2022-12-05T01:34:07.019Z,2.70
2022-12-05T01:36:34.682Z,2.60
2022-12-05T01:39:02.502Z,2.70
2022-12-05T01:41:32.922Z,2.70
2022-12-05T01:44:05.260Z,2.60
2022-12-05T01:46:44.426Z,2.70
2022-12-05T01:49:20.266Z,2.70
2022-12-05T01:51:50.476Z,2.70
2022-12-05T01:54:20.001Z,2.70
2022-12-05T01:56:56.349Z,2.70
2022-12-05T01:59:26.120Z,2.60
2022-12-05T02:01:54.448Z,2.60
2022-12-05T02:04:22.022Z,2.60
2022-12-05T02:06:49.562Z,2.60
2022-12-05T02:09:16.859Z,2.60
2022-12-05T02:11:54.662Z,2.60
2022-12-05T02:14:34.242Z,2.60
2022-12-05T02:17:31.022Z,2.70
2022-12-05T02:20:16.748Z,2.70
2022-12-05T02:22:59.446Z,2.70
2022-12-05T02:25:52.882Z,2.60
2022-12-05T02:28:28.746Z,2.60
2022-12-05T02:31:08.833Z,2.60
2022-12-05T02:33:45.315Z,2.70
2022-12-05T02:36:24.542Z,2.60
2022-12-05T02:38:59.780Z,2.60
2022-12-05T02:41:43.555Z,2.60
2022-12-05T02:44:23.115Z,2.60
2022-12-05T02:46:52.735Z,2.60
2022-12-05T02:49:25.631Z,2.70
2022-12-05T02:52:02.395Z,2.60
2022-12-05T02:54:35.690Z,2.70
2022-12-05T02:57:05.200Z,2.60
2022-12-05T02:59:32.533Z,2.60
2022-12-05T03:01:59.994Z,2.60
2022-12-05T03:04:30.918Z,2.60
2022-12-05T03:07:00.764Z,2.70
2022-12-05T03:09:35.852Z,2.60
2022-12-05T03:12:14.889Z,2.60
2022-12-05T03:14:51.721Z,2.60
2022-12-05T03:17:27.074Z,2.60
2022-12-05T03:20:06.437Z,2.60
2022-12-05T03:22:41.960Z,2.70
2022-12-05T03:25:13.405Z,2.60
2022-12-05T03:27:41.178Z,2.60
2022-12-05T03:30:12.882Z,2.60
2022-12-05T03:32:49.312Z,2.50
2022-12-05T03:35:37.810Z,2.60
2022-12-05T03:38:35.441Z,2.60
2022-12-05T03:41:10.052Z,2.60
2022-12-05T03:43:55.641Z,2.60
2022-12-05T03:46:32.103Z,2.60
2022-12-05T03:49:16.258Z,2.60
2022-12-05T03:52:06.867Z,2.60
2022-12-05T03:54:44.249Z,2.60
2022-12-05T03:57:44.373Z,2.60
2022-12-05T04:00:16.167Z,2.60
2022-12-05T04:02:48.212Z,2.50
2022-12-05T04:05:19.101Z,2.60
2022-12-05T04:07:50.226Z,2.60
2022-12-05T04:10:24.324Z,2.60
2022-12-05T04:12:55.390Z,2.60
2022-12-05T04:15:52.412Z,2.60
2022-12-05T04:18:23.330Z,2.50
2022-12-05T04:21:11.364Z,2.50
2022-12-05T04:23:41.398Z,2.50
2022-12-05T04:26:27.297Z,2.50
2022-12-05T04:29:26.219Z,2.40
2022-12-05T04:31:58.849Z,2.50
2022-12-05T04:34:29.664Z,2.50
2022-12-05T04:37:03.074Z,2.50
2022-12-05T04:39:46.063Z,2.50
2022-12-05T04:42:23.126Z,2.60
2022-12-05T04:45:08.695Z,2.60
2022-12-05T04:47:43.564Z,2.60
2022-12-05T04:50:12.779Z,2.60
2022-12-05T04:52:41.304Z,2.60
2022-12-05T04:55:12.642Z,2.60
2022-12-05T04:57:57.817Z,2.60
2022-12-05T05:00:26.108Z,2.60
2022-12-05T05:03:00.859Z,2.60
2022-12-05T05:05:29.407Z,2.60
2022-12-05T05:07:57.767Z,2.60
2022-12-05T05:10:40.108Z,2.60
2022-12-05T05:13:07.970Z,2.60
2022-12-05T05:15:35.300Z,2.50
2022-12-05T05:18:02.707Z,2.60
2022-12-05T05:20:32.078Z,2.60
2022-12-05T05:22:59.437Z,2.60
2022-12-05T05:25:26.983Z,2.60
2022-12-05T05:27:56.323Z,2.60
2022-12-05T05:30:25.198Z,2.60
2022-12-05T05:32:52.864Z,2.60
2022-12-05T05:35:22.061Z,2.60
2022-12-05T05:37:49.421Z,2.60
2022-12-05T05:40:17.000Z,2.60
2022-12-05T05:42:49.169Z,2.60
2022-12-05T05:45:17.311Z,2.60
2022-12-05T05:47:45.044Z,2.50
2022-12-05T05:50:19.529Z,2.50
2022-12-05T05:52:48.689Z,2.60
2022-12-05T05:55:15.967Z,2.60
2022-12-05T05:57:43.535Z,2.60
2022-12-05T06:00:12.050Z,2.60
2022-12-05T06:02:39.496Z,2.60
2022-12-05T06:05:07.348Z,2.60
2022-12-05T06:07:35.072Z,2.60
2022-12-05T06:10:02.605Z,2.60
2022-12-05T06:12:30.110Z,2.60
2022-12-05T06:14:57.879Z,2.60
2022-12-05T06:17:25.245Z,2.60
2022-12-05T06:19:52.833Z,2.60
2022-12-05T06:22:20.414Z,2.60
2022-12-05T06:24:48.963Z,2.60
2022-12-05T06:27:16.645Z,2.50
2022-12-05T06:29:44.107Z,2.50
2022-12-05T06:32:11.456Z,2.60
2022-12-05T06:34:39.065Z,2.60
2022-12-05T06:37:07.382Z,2.60
2022-12-05T06:39:34.976Z,2.60
2022-12-05T06:42:02.922Z,2.60
2022-12-05T06:44:30.575Z,2.60
2022-12-05T06:46:58.218Z,2.70
2022-12-05T06:49:31.702Z,2.60
2022-12-05T06:52:01.152Z,2.60
2022-12-05T06:54:28.603Z,2.60
2022-12-05T06:56:55.994Z,2.60
2022-12-05T06:59:23.415Z,2.60
2022-12-05T07:01:50.923Z,2.60
2022-12-05T07:04:24.469Z,2.60
2022-12-05T07:06:53.192Z,2.60
2022-12-05T07:09:46.207Z,2.70
2022-12-05T07:12:16.729Z,2.60
2022-12-05T07:14:49.103Z,2.70
2022-12-05T07:17:18.938Z,2.70
2022-12-05T07:19:51.848Z,2.70
2022-12-05T07:22:21.542Z,2.70
2022-12-05T07:24:51.423Z,2.70
2022-12-05T07:27:25.124Z,2.70
2022-12-05T07:29:57.237Z,2.70
2022-12-05T07:32:25.089Z,2.70
2022-12-05T07:34:55.534Z,2.70
2022-12-05T07:37:24.346Z,2.80
2022-12-05T07:39:53.456Z,2.80
2022-12-05T07:42:21.105Z,2.80
2022-12-05T07:44:49.124Z,2.80
2022-12-05T07:47:16.710Z,2.80
2022-12-05T07:49:43.991Z,2.80
2022-12-05T07:52:11.491Z,2.80
2022-12-05T07:54:39.055Z,2.80
2022-12-05T07:57:06.630Z,2.80
2022-12-05T07:59:34.043Z,2.80
2022-12-05T08:02:01.378Z,2.80
2022-12-05T08:04:28.741Z,2.90
2022-12-05T08:06:56.096Z,2.90
2022-12-05T08:09:23.556Z,2.80
2022-12-05T08:11:52.836Z,2.80
2022-12-05T08:14:20.497Z,2.90
2022-12-05T08:16:47.975Z,2.90
2022-12-05T08:19:17.301Z,2.90
2022-12-05T08:21:44.962Z,2.90
2022-12-05T08:24:12.719Z,2.90
2022-12-05T08:26:42.634Z,3.00
2022-12-05T08:29:13.346Z,3.00
2022-12-05T08:31:44.620Z,3.10
2022-12-05T08:34:13.387Z,3.10
2022-12-05T08:36:41.774Z,3.10
2022-12-05T08:39:14.560Z,3.20
2022-12-05T08:41:42.702Z,3.20
2022-12-05T08:44:16.542Z,3.20
2022-12-05T08:46:45.691Z,3.20
2022-12-05T08:49:13.823Z,3.30
2022-12-05T08:51:42.781Z,3.40
2022-12-05T08:54:10.881Z,3.40
2022-12-05T08:56:38.940Z,3.50
2022-12-05T08:59:06.901Z,3.50
2022-12-05T09:01:37.323Z,3.60
2022-12-05T09:04:06.007Z,3.60
2022-12-05T09:06:34.825Z,3.70
2022-12-05T09:09:06.037Z,3.70
2022-12-05T09:11:37.221Z,3.80
2022-12-05T09:14:05.711Z,3.80
2022-12-05T09:16:38.396Z,3.90
2022-12-05T09:19:15.362Z,3.90
2022-12-05T09:21:43.613Z,4.00
2022-12-05T09:24:12.886Z,4.10
2022-12-05T09:26:41.062Z,4.20
2022-12-05T09:29:15.752Z,4.20
2022-12-05T09:31:44.809Z,4.20
2022-12-05T09:34:14.465Z,4.20
2022-12-05T09:36:41.951Z,4.30
2022-12-05T09:39:10.512Z,4.40
2022-12-05T09:42:25.947Z,4.40
2022-12-05T09:45:18.258Z,4.40
2022-12-05T09:48:14.781Z,4.50
2022-12-05T09:51:01.812Z,4.60
2022-12-05T09:53:39.141Z,4.70
2022-12-05T09:56:15.980Z,4.80
2022-12-05T09:58:49.263Z,4.80
2022-12-05T10:01:44.488Z,4.90
2022-12-05T10:04:45.292Z,4.90
2022-12-05T10:07:25.062Z,4.90
2022-12-05T10:10:49.030Z,4.80
2022-12-05T10:13:59.190Z,4.90
2022-12-05T10:16:35.353Z,4.80
2022-12-05T10:19:14.897Z,4.80
2022-12-05T10:22:01.309Z,4.90
2022-12-05T10:24:41.348Z,4.90
2022-12-05T10:27:13.415Z,5.00
2022-12-05T10:30:00.447Z,5.00
2022-12-05T10:32:41.540Z,5.10
2022-12-05T10:35:35.497Z,5.20
2022-12-05T10:38:31.753Z,5.30
2022-12-05T10:41:04.939Z,5.20
2022-12-05T10:43:34.192Z,5.20
2022-12-05T10:46:03.000Z,5.30
2022-12-05T10:48:32.100Z,5.40
2022-12-05T10:51:00.958Z,5.40
2022-12-05T10:53:40.094Z,5.60
2022-12-05T10:56:41.704Z,5.60
2022-12-05T10:59:16.729Z,5.70
2022-12-05T11:01:58.675Z,5.70
2022-12-05T11:04:43.890Z,5.80
2022-12-05T11:07:30.470Z,5.80
2022-12-05T11:10:02.597Z,5.80
2022-12-05T11:12:39.824Z,6.00
2022-12-05T11:15:28.365Z,6.10
2022-12-05T11:17:58.001Z,6.20
2022-12-05T11:20:25.456Z,6.20
2022-12-05T11:22:57.240Z,6.30
2022-12-05T11:25:29.150Z,6.30
2022-12-05T11:28:01.190Z,6.40
2022-12-05T11:30:30.096Z,6.40
2022-12-05T11:33:17.520Z,6.30
2022-12-05T11:35:47.271Z,6.20
2022-12-05T11:38:17.566Z,6.20
2022-12-05T11:41:14.570Z,6.20
2022-12-05T11:43:53.844Z,6.30
2022-12-05T11:46:29.973Z,6.30
2022-12-05T11:49:38.685Z,6.30
2022-12-05T11:52:24.720Z,6.30
2022-12-05T11:55:05.320Z,6.40
2022-12-05T11:57:52.710Z,6.40
2022-12-05T12:00:27.949Z,6.40
2022-12-05T12:03:17.206Z,6.40
2022-12-05T12:05:51.159Z,6.40
2022-12-05T12:08:26.575Z,6.40
2022-12-05T12:11:11.519Z,6.50
2022-12-05T12:14:03.417Z,6.50
2022-12-05T12:17:02.755Z,6.50
2022-12-05T12:20:03.555Z,6.50
2022-12-05T12:22:46.852Z,6.50
2022-12-05T12:25:43.210Z,6.50
2022-12-05T12:28:22.216Z,6.50
2022-12-05T12:31:09.000Z,6.60
2022-12-05T12:33:59.418Z,6.60
2022-12-05T12:36:30.918Z,6.50
2022-12-05T12:39:10.414Z,6.50
2022-12-05T12:42:13.210Z,6.50
2022-12-05T12:45:17.514Z,6.50
2022-12-05T12:48:18.779Z,6.50
2022-12-05T12:50:55.151Z,6.40
2022-12-05T12:53:28.967Z,6.50
2022-12-05T12:55:56.605Z,6.50
2022-12-05T12:58:56.121Z,6.50
2022-12-05T13:01:29.667Z,6.50
2022-12-05T13:04:07.553Z,6.60
2022-12-05T13:06:47.098Z,6.50
2022-12-05T13:09:32.310Z,6.40
2022-12-05T13:12:06.857Z,6.40
2022-12-05T13:14:36.919Z,6.30
2022-12-05T13:17:07.236Z,6.40
2022-12-05T13:19:49.442Z,6.30
2022-12-05T13:22:19.790Z,6.30
2022-12-05T13:24:47.632Z,6.20
2022-12-05T13:27:21.441Z,6.20
2022-12-05T13:29:57.277Z,6.20
2022-12-05T13:32:32.231Z,6.20
2022-12-05T13:35:08.448Z,6.20
2022-12-05T13:37:55.320Z,6.10
2022-12-05T13:40:47.507Z,6.10
2022-12-05T13:43:24.128Z,6.10
2022-12-05T13:46:23.078Z,6.10
2022-12-05T13:49:05.111Z,6.10
2022-12-05T13:51:37.414Z,6.00
2022-12-05T13:54:17.177Z,5.90
2022-12-05T13:57:02.207Z,5.90
2022-12-05T14:00:01.071Z,5.80
2022-12-05T14:02:43.896Z,5.80
2022-12-05T14:05:21.963Z,5.80
2022-12-05T14:08:01.061Z,5.80
2022-12-05T14:10:29.590Z,5.80
2022-12-05T14:13:01.527Z,5.70
2022-12-05T14:15:43.850Z,5.70
2022-12-05T14:18:35.674Z,5.70
2022-12-05T14:21:11.839Z,5.60
2022-12-05T14:23:59.744Z,5.60
2022-12-05T14:26:56.029Z,5.60
2022-12-05T14:29:26.322Z,5.60
2022-12-05T14:32:23.547Z,5.60
2022-12-05T14:35:20.036Z,5.50
2022-12-05T14:37:56.305Z,5.50
2022-12-05T14:40:38.683Z,5.50
2022-12-05T14:43:34.705Z,5.50
2022-12-05T14:46:03.709Z,5.50
2022-12-05T14:48:35.167Z,5.40
2022-12-05T14:51:05.160Z,5.40
2022-12-05T14:53:51.163Z,5.40
2022-12-05T14:56:20.759Z,5.40
2022-12-05T14:58:52.577Z,5.40
2022-12-05T15:01:22.586Z,5.40
2022-12-05T15:04:14.969Z,5.40
2022-12-05T15:06:54.127Z,5.30
2022-12-05T15:09:45.649Z,5.30
2022-12-05T15:12:20.802Z,5.40
2022-12-05T15:14:54.477Z,5.40
2022-12-05T15:17:27.870Z,5.30
2022-12-05T15:20:06.091Z,5.30
2022-12-05T15:22:37.951Z,5.30
2022-12-05T15:25:26.111Z,5.20
2022-12-05T15:28:06.314Z,5.20
2022-12-05T15:30:38.418Z,5.20
2022-12-05T15:33:10.938Z,5.20
2022-12-05T15:35:38.817Z,5.20
2022-12-05T15:38:29.850Z,5.10
2022-12-05T15:40:57.145Z,5.10
2022-12-05T15:43:28.990Z,5.10
2022-12-05T15:46:14.907Z,5.10
2022-12-05T15:48:42.512Z,5.10
2022-12-05T15:51:09.807Z,5.20
2022-12-05T15:53:52.001Z,5.10
2022-12-05T15:56:31.024Z,5.10
2022-12-05T15:59:19.814Z,5.20
2022-12-05T16:01:52.445Z,5.20
2022-12-05T16:04:31.106Z,5.20
2022-12-05T16:07:00.818Z,5.20
2022-12-05T16:09:32.326Z,5.10
2022-12-05T16:12:05.960Z,5.10
2022-12-05T16:15:00.262Z,5.10
2022-12-05T16:17:31.424Z,5.10
2022-12-05T16:20:17.340Z,5.10
2022-12-05T16:22:57.289Z,5.00
2022-12-05T16:25:30.797Z,5.00
2022-12-05T16:28:08.604Z,5.00
2022-12-05T16:30:37.639Z,5.00
2022-12-05T16:33:16.480Z,5.00
2022-12-05T16:35:46.338Z,5.20
2022-12-05T16:38:30.198Z,5.10
2022-12-05T16:41:03.333Z,5.10
2022-12-05T16:43:33.619Z,5.10
2022-12-05T16:46:15.901Z,5.10
2022-12-05T16:49:07.777Z,5.00
2022-12-05T16:51:42.537Z,5.00
2022-12-05T16:54:09.913Z,5.10
2022-12-05T16:56:38.084Z,5.10
2022-12-05T16:59:07.298Z,5.10
2022-12-05T17:01:39.214Z,5.10
2022-12-05T17:04:11.254Z,5.10
2022-12-05T17:06:39.988Z,5.00
2022-12-05T17:09:07.502Z,5.00
2022-12-05T17:11:37.333Z,5.00
2022-12-05T17:14:07.775Z,5.00
2022-12-05T17:16:35.197Z,4.90
2022-12-05T17:19:02.791Z,4.90
2022-12-05T17:21:33.219Z,4.90
2022-12-05T17:24:01.159Z,4.90
2022-12-05T17:26:28.572Z,5.00
2022-12-05T17:28:57.076Z,5.00
2022-12-05T17:31:26.202Z,4.90
2022-12-05T17:33:54.665Z,4.90
2022-12-05T17:36:22.044Z,4.90
2022-12-05T17:38:50.104Z,4.90
2022-12-05T17:41:23.884Z,4.80
2022-12-05T17:43:52.043Z,4.80
2022-12-05T17:46:22.421Z,4.80
2022-12-05T17:48:51.378Z,4.80
2022-12-05T17:51:20.163Z,4.80
2022-12-05T17:53:48.043Z,4.80
2022-12-05T17:56:15.908Z,4.80
2022-12-05T17:58:43.230Z,4.80
2022-12-05T18:01:16.001Z,4.80
2022-12-05T18:03:43.652Z,4.80
2022-12-05T18:06:11.363Z,4.80
2022-12-05T18:08:44.256Z,4.80
2022-12-05T18:11:15.769Z,4.80
2022-12-05T18:13:43.033Z,4.80
2022-12-05T18:16:10.729Z,4.70
2022-12-05T18:18:38.716Z,4.70
2022-12-05T18:21:12.252Z,4.70
2022-12-05T18:23:40.840Z,4.70
2022-12-05T18:26:10.384Z,4.60
2022-12-05T18:28:39.486Z,4.70
2022-12-05T18:31:09.333Z,4.70
2022-12-05T18:33:37.118Z,4.70
2022-12-05T18:36:09.842Z,4.80
2022-12-05T18:38:38.107Z,4.90
2022-12-05T18:41:07.204Z,4.80
2022-12-05T18:43:35.238Z,4.70
2022-12-05T18:46:06.531Z,4.70
2022-12-05T18:48:41.602Z,4.70
2022-12-05T18:51:13.086Z,4.70
2022-12-05T18:53:41.396Z,4.60
2022-12-05T18:56:27.455Z,4.60
2022-12-05T18:58:59.834Z,4.70
2022-12-05T19:01:28.824Z,4.60
2022-12-05T19:04:01.585Z,4.60
2022-12-05T19:06:32.272Z,4.70
2022-12-05T19:09:03.251Z,4.60
2022-12-05T19:11:30.594Z,4.60
2022-12-05T19:13:59.788Z,4.60
2022-12-05T19:16:29.078Z,4.60
2022-12-05T19:19:01.876Z,4.60
2022-12-05T19:21:33.008Z,4.60
2022-12-05T19:24:02.306Z,4.60
2022-12-05T19:26:29.800Z,4.60
2022-12-05T19:28:57.626Z,4.60
2022-12-05T19:31:26.755Z,4.60
2022-12-05T19:34:01.108Z,4.60
2022-12-05T19:36:32.353Z,4.70
2022-12-05T19:39:00.281Z,4.70
2022-12-05T19:41:31.004Z,4.70
2022-12-05T19:44:02.217Z,4.70
2022-12-05T19:46:31.138Z,4.70
2022-12-05T19:49:03.661Z,4.70
2022-12-05T19:51:33.059Z,4.70
2022-12-05T19:54:02.739Z,4.60
2022-12-05T19:56:31.671Z,4.60
2022-12-05T19:59:00.452Z,4.60
2022-12-05T20:01:33.635Z,4.70
2022-12-05T20:04:10.453Z,4.70
2022-12-05T20:06:41.651Z,4.70
2022-12-05T20:09:10.527Z,4.70
2022-12-05T20:11:43.807Z,4.70
2022-12-05T20:14:13.880Z,4.70
2022-12-05T20:16:42.312Z,4.70
2022-12-05T20:19:10.056Z,4.60
2022-12-05T20:21:40.407Z,4.60
2022-12-05T20:24:08.449Z,4.50
2022-12-05T20:26:42.162Z,4.50
2022-12-05T20:29:09.887Z,4.50
2022-12-05T20:31:42.381Z,4.50
2022-12-05T20:34:14.474Z,4.50
2022-12-05T20:36:42.716Z,4.50
2022-12-05T20:39:17.554Z,4.50
2022-12-05T20:41:45.414Z,4.50
2022-12-05T20:44:15.191Z,4.60
2022-12-05T20:46:42.599Z,4.60
2022-12-05T20:49:11.672Z,4.60
2022-12-05T20:51:42.007Z,4.60
2022-12-05T20:54:09.459Z,4.60
2022-12-05T20:56:36.914Z,4.50
2022-12-05T20:59:07.579Z,4.60
2022-12-05T21:01:36.934Z,4.50
2022-12-05T21:04:06.972Z,4.50
2022-12-05T21:06:37.434Z,4.50
2022-12-05T21:09:07.184Z,4.50
2022-12-05T21:11:34.659Z,4.50
2022-12-05T21:14:05.302Z,4.50
2022-12-05T21:16:32.691Z,4.50
2022-12-05T21:19:00.842Z,4.60
2022-12-05T21:21:29.235Z,4.60
2022-12-05T21:24:01.927Z,4.70
2022-12-05T21:26:33.905Z,4.60
2022-12-05T21:29:02.346Z,4.60
2022-12-05T21:31:34.985Z,4.50
2022-12-05T21:34:06.033Z,4.50
2022-12-05T21:36:36.495Z,4.50
2022-12-05T21:39:04.519Z,4.50
2022-12-05T21:41:32.390Z,4.50
2022-12-05T21:44:01.241Z,4.50
2022-12-05T21:46:28.752Z,4.50
2022-12-05T21:48:56.427Z,4.50
2022-12-05T21:51:24.522Z,4.50
2022-12-05T21:53:52.599Z,4.50
2022-12-05T21:56:25.866Z,4.50
2022-12-05T21:58:53.743Z,4.50
2022-12-05T22:01:24.525Z,4.50
2022-12-05T22:03:53.933Z,4.50
2022-12-05T22:06:21.698Z,4.50
2022-12-05T22:08:51.054Z,4.50
2022-12-05T22:11:21.444Z,4.50
2022-12-05T22:13:50.133Z,4.50
2022-12-05T22:16:19.056Z,4.50
2022-12-05T22:18:46.911Z,4.60
2022-12-05T22:21:19.420Z,4.60
2022-12-05T22:23:48.092Z,4.60
2022-12-05T22:26:21.483Z,4.60
2022-12-05T22:28:51.476Z,4.60
2022-12-05T22:31:19.829Z,4.70
2022-12-05T22:33:47.904Z,4.70
2022-12-05T22:36:18.362Z,4.60
2022-12-05T22:38:47.960Z,4.60
2022-12-05T22:41:18.229Z,4.60
2022-12-05T22:43:47.589Z,4.60
2022-12-05T22:46:20.765Z,4.60
2022-12-05T22:48:50.170Z,4.60
2022-12-05T22:51:19.794Z,4.60
2022-12-05T22:53:47.094Z,4.60
2022-12-05T22:56:17.368Z,4.60
2022-12-05T22:58:45.825Z,4.60
2022-12-05T23:01:20.153Z,4.60
2022-12-05T23:03:49.924Z,4.50
2022-12-05T23:06:18.220Z,4.50
2022-12-05T23:08:48.215Z,4.50
2022-12-05T23:11:16.798Z,4.50
2022-12-05T23:13:44.583Z,4.50
2022-12-05T23:16:21.412Z,4.50
2022-12-05T23:18:50.877Z,4.60
2022-12-05T23:21:30.146Z,4.70
2022-12-05T23:24:00.477Z,4.70
2022-12-05T23:26:34.463Z,4.70
2022-12-05T23:29:01.866Z,4.70
2022-12-05T23:31:29.317Z,4.60
2022-12-05T23:34:01.450Z,4.70
2022-12-05T23:36:33.185Z,4.70
2022-12-05T23:39:01.283Z,4.70
2022-12-05T23:41:28.798Z,4.70
2022-12-05T23:43:57.095Z,4.60
2022-12-05T23:46:28.626Z,4.60
2022-12-05T23:48:56.445Z,4.60
2022-12-05T23:51:26.914Z,4.60
2022-12-05T23:54:00.060Z,4.60
2022-12-05T23:56:30.169Z,4.60
2022-12-05T23:58:58.196Z,4.60
